Time;durP1;ratioP1;P1;durP2;ratioP2;P2;SDS_P1;SDS_P2;PMS_P1;PMS_P2;Temp;Humidity;BMP_temperature;BMP_pressure;BME280_temperature;BME280_humidity;BME280_pressure;Samples;Min_cycle;Max_cycle;Signal;HPM_P1;HPM_P2
2022/12/11 00:01:50;;;;;;;53.25;28.85;;;;;;;-1.69;100.00;95898.81;4982976;28;20042;-69
2022/12/11 00:04:15;;;;;;;53.25;26.92;;;;;;;-1.72;100.00;95905.63;4980060;28;20069;-69
2022/12/11 00:06:41;;;;;;;50.95;27.02;;;;;;;-1.73;100.00;95904.03;4980822;28;20125;-68
2022/12/11 00:09:06;;;;;;;51.25;26.77;;;;;;;-1.74;100.00;95894.41;4977435;28;20050;-67
2022/12/11 00:11:32;;;;;;;53.88;27.83;;;;;;;-1.67;100.00;95893.97;4982204;28;20056;-70
2022/12/11 00:13:58;;;;;;;51.35;27.17;;;;;;;-1.55;100.00;95888.78;4998110;28;20043;-70
2022/12/11 00:16:23;;;;;;;47.10;26.25;;;;;;;-1.42;100.00;95892.53;4977304;28;20416;-70
2022/12/11 00:18:49;;;;;;;45.97;25.90;;;;;;;-1.36;100.00;95897.44;4982839;28;20042;-69
2022/12/11 00:21:14;;;;;;;46.22;25.98;;;;;;;-1.41;100.00;95883.34;4977306;28;20046;-67
2022/12/11 00:23:40;;;;;;;44.72;25.23;;;;;;;-1.48;100.00;95878.41;4983467;28;20034;-71
2022/12/11 00:26:09;;;;;;;47.67;26.10;;;;;;;-1.49;100.00;95876.84;4977272;28;20045;-69
2022/12/11 00:28:35;;;;;;;44.63;25.33;;;;;;;-1.37;100.00;95881.63;4980894;28;20050;-68
2022/12/11 00:31:06;;;;;;;49.67;25.90;;;;;;;-1.37;100.00;95885.13;4982982;28;20538;-70
2022/12/11 00:33:32;;;;;;;49.08;25.83;;;;;;;-1.37;100.00;95889.69;5002176;28;20045;-70
2022/12/11 00:35:57;;;;;;;44.25;24.92;;;;;;;-1.38;100.00;95886.19;5001474;28;20094;-69
2022/12/11 00:38:23;;;;;;;54.05;27.60;;;;;;;-1.51;100.00;95892.47;4998072;28;20577;-69
2022/12/11 00:40:49;;;;;;;44.38;24.27;;;;;;;-1.56;100.00;95889.91;4988682;28;20518;-70
2022/12/11 00:43:15;;;;;;;48.30;26.17;;;;;;;-1.56;100.00;95895.28;4962327;28;20046;-68
2022/12/11 00:45:45;;;;;;;50.03;26.02;;;;;;;-1.68;100.00;95892.38;4993929;28;20043;-68
2022/12/11 00:48:11;;;;;;;50.08;26.85;;;;;;;-1.96;100.00;95903.25;4975026;28;20057;-70
2022/12/11 00:50:38;;;;;;;53.10;28.45;;;;;;;-2.12;100.00;95903.63;4983032;28;20124;-70
2022/12/11 00:53:05;;;;;;;50.15;27.00;;;;;;;-2.18;100.00;95910.22;4988459;28;20043;-69
2022/12/11 00:55:30;;;;;;;55.83;29.75;;;;;;;-2.31;100.00;95909.13;4994912;28;20096;-69
2022/12/11 00:57:57;;;;;;;54.63;27.83;;;;;;;-2.33;100.00;95913.22;4983317;28;20046;-69
2022/12/11 01:00:23;;;;;;;54.10;27.40;;;;;;;-2.28;100.00;95913.13;4978673;28;20054;-70
2022/12/11 01:02:49;;;;;;;56.05;29.05;;;;;;;-2.06;100.00;95915.00;4980759;28;20031;-70
2022/12/11 01:05:14;;;;;;;53.53;26.90;;;;;;;-1.83;100.00;95910.44;4978090;28;20035;-70
2022/12/11 01:07:40;;;;;;;59.75;28.95;;;;;;;-1.70;100.00;95919.53;4983235;28;20061;-69
2022/12/11 01:10:23;;;;;;;54.42;28.55;;;;;;;-1.64;100.00;95912.94;4975800;28;20054;-70
2022/12/11 01:13:01;;;;;;;51.70;26.73;;;;;;;-1.64;100.00;95922.88;4986513;28;20466;-70
2022/12/11 01:15:29;;;;;;;50.67;28.40;;;;;;;-1.56;100.00;95920.25;4982171;28;20050;-68
2022/12/11 01:17:55;;;;;;;46.65;26.02;;;;;;;-1.50;100.00;95920.13;4993204;28;20043;-69
2022/12/11 01:20:22;;;;;;;53.17;28.38;;;;;;;-1.46;100.00;95915.69;4993269;28;20583;-69
2022/12/11 01:22:50;;;;;;;51.03;26.95;;;;;;;-1.46;100.00;95918.38;4987782;28;20092;-69
2022/12/11 01:25:16;;;;;;;50.05;26.45;;;;;;;-1.46;100.00;95916.53;4986974;28;20042;-70
2022/12/11 01:27:41;;;;;;;48.20;25.88;;;;;;;-1.43;100.00;95915.09;4990039;28;20050;-69
2022/12/11 01:30:08;;;;;;;46.95;26.90;;;;;;;-1.97;100.00;95926.59;4995887;28;20054;-70
2022/12/11 01:32:35;;;;;;;55.38;28.27;;;;;;;-2.25;100.00;95923.25;4991563;28;20049;-70
2022/12/11 01:35:03;;;;;;;52.15;28.42;;;;;;;-2.42;100.00;95925.78;4985047;28;20031;-70
2022/12/11 01:37:29;;;;;;;60.33;30.58;;;;;;;-2.52;100.00;95924.09;5018835;28;20121;-70
2022/12/11 01:39:55;;;;;;;71.57;33.17;;;;;;;-2.63;100.00;95922.72;5015855;28;20553;-69
2022/12/11 01:42:20;;;;;;;70.20;32.67;;;;;;;-2.64;100.00;95919.25;5008679;28;20129;-69
2022/12/11 01:44:46;;;;;;;75.30;33.50;;;;;;;-2.71;100.00;95922.34;5014896;28;20057;-70
2022/12/11 01:47:11;;;;;;;71.85;34.88;;;;;;;-2.72;100.00;95925.31;5007146;28;20030;-69
2022/12/11 01:49:39;;;;;;;69.97;33.95;;;;;;;-2.74;100.00;95920.28;5011618;28;20038;-69
2022/12/11 01:52:18;;;;;;;67.35;34.20;;;;;;;-2.79;100.00;95919.56;5001143;28;20044;-66
2022/12/11 01:54:44;;;;;;;72.68;33.70;;;;;;;-2.80;100.00;95920.69;5005800;28;20328;-69
2022/12/11 01:57:11;;;;;;;71.65;35.10;;;;;;;-2.80;100.00;95916.09;4999139;28;20124;-69
2022/12/11 01:59:40;;;;;;;76.57;36.47;;;;;;;-2.81;100.00;95917.22;4988346;28;20057;-70
2022/12/11 02:02:11;;;;;;;69.90;35.13;;;;;;;-2.79;100.00;95920.38;4998898;28;20072;-70
2022/12/11 02:04:38;;;;;;;71.55;32.55;;;;;;;-2.77;100.00;95923.56;5005268;28;20053;-70
2022/12/11 02:07:04;;;;;;;71.15;34.60;;;;;;;-2.73;100.00;95923.75;5002210;28;20442;-69
2022/12/11 02:09:33;;;;;;;71.30;34.45;;;;;;;-2.68;100.00;95926.31;5005803;28;20132;-70
2022/12/11 02:12:15;;;;;;;72.15;35.72;;;;;;;-2.69;100.00;95922.03;5002906;28;20578;-70
2022/12/11 02:14:45;;;;;;;66.80;33.33;;;;;;;-2.63;100.00;95931.59;5002250;28;20037;-70
2022/12/11 02:17:18;;;;;;;64.18;32.15;;;;;;;-2.44;100.00;95934.13;4999927;28;20407;-68
2022/12/11 02:19:52;;;;;;;65.15;31.85;;;;;;;-2.25;100.00;95933.16;5003679;28;20042;-68
2022/12/11 02:22:45;;;;;;;63.55;32.40;;;;;;;-2.10;100.00;95934.72;4998200;28;20038;-70
2022/12/11 02:25:16;;;;;;;60.20;30.95;;;;;;;-2.05;100.00;95935.41;5000797;28;20525;-69
2022/12/11 02:27:55;;;;;;;61.00;29.90;;;;;;;-2.04;100.00;95926.22;5002960;28;20185;-69
2022/12/11 02:30:21;;;;;;;61.03;30.00;;;;;;;-1.92;100.00;95931.06;4999790;28;20044;-70
2022/12/11 02:32:53;;;;;;;57.00;30.10;;;;;;;-1.86;100.00;95929.06;5002330;28;20041;-70
2022/12/11 02:35:27;;;;;;;56.17;29.63;;;;;;;-1.77;100.00;95929.91;4998756;28;20093;-69
2022/12/11 02:38:18;;;;;;;58.17;28.42;;;;;;;-1.83;100.00;95934.59;5005013;28;20084;-69
2022/12/11 02:40:48;;;;;;;52.70;27.77;;;;;;;-1.80;100.00;95934.00;4981096;28;20045;-70
2022/12/11 02:43:16;;;;;;;52.92;27.50;;;;;;;-1.82;100.00;95940.75;4995050;28;20380;-68
2022/12/11 02:45:44;;;;;;;52.95;26.60;;;;;;;-1.98;100.00;95937.63;5003374;28;20052;-70
2022/12/11 02:48:10;;;;;;;51.95;27.80;;;;;;;-2.03;100.00;95937.78;4997667;28;20045;-70
2022/12/11 02:50:43;;;;;;;51.65;26.77;;;;;;;-1.89;100.00;95943.06;5006363;28;20101;-69
2022/12/11 02:53:11;;;;;;;46.85;25.13;;;;;;;-1.83;100.00;95937.28;5007318;28;20050;-70
2022/12/11 02:55:39;;;;;;;48.30;24.83;;;;;;;-1.81;100.00;95934.31;5007085;28;20131;-70
2022/12/11 02:58:07;;;;;;;51.30;25.80;;;;;;;-1.82;100.00;95928.16;5000149;28;20042;-69
2022/12/11 03:00:33;;;;;;;47.90;25.23;;;;;;;-1.86;100.00;95937.09;5048744;28;20037;-71
2022/12/11 03:02:58;;;;;;;43.97;24.65;;;;;;;-2.22;100.00;95943.28;5005491;28;20132;-70
2022/12/11 03:05:26;;;;;;;47.05;24.95;;;;;;;-2.52;100.00;95942.84;5000031;28;20910;-68
2022/12/11 03:07:51;;;;;;;46.63;24.92;;;;;;;-2.59;100.00;95945.16;5004160;28;20073;-69
2022/12/11 03:10:18;;;;;;;53.28;26.27;;;;;;;-2.70;100.00;95942.69;4996528;28;20073;-70
2022/12/11 03:12:47;;;;;;;51.10;25.23;;;;;;;-2.97;100.00;95945.38;5003610;28;20038;-69
2022/12/11 03:15:16;;;;;;;50.80;25.88;;;;;;;-3.11;100.00;95940.03;5000479;28;20132;-70
2022/12/11 03:17:46;;;;;;;55.50;28.38;;;;;;;-3.23;100.00;95950.44;5002355;28;20038;-69
2022/12/11 03:20:21;;;;;;;55.97;28.05;;;;;;;-3.05;100.00;95940.72;5001008;28;20038;-69
2022/12/11 03:23:08;;;;;;;54.95;28.20;;;;;;;-2.87;100.00;95942.50;5035338;28;20038;-69
2022/12/11 03:25:36;;;;;;;53.90;26.92;;;;;;;-2.80;100.00;95934.06;5003197;28;20041;-69
2022/12/11 03:28:08;;;;;;;52.90;25.50;;;;;;;-2.85;100.00;95937.63;5001965;28;20077;-70
2022/12/11 03:30:35;;;;;;;55.83;28.05;;;;;;;-2.85;100.00;95934.16;5005714;28;20103;-69
2022/12/11 03:33:10;;;;;;;51.38;26.77;;;;;;;-3.28;100.00;95938.75;5003627;28;20053;-70
2022/12/11 03:35:39;;;;;;;57.90;28.65;;;;;;;-3.32;100.00;95940.41;4983036;28;20066;-70
2022/12/11 03:38:10;;;;;;;55.47;28.20;;;;;;;-3.14;100.00;95954.00;4987411;28;20038;-66
2022/12/11 03:40:37;;;;;;;54.03;27.38;;;;;;;-2.85;100.00;95942.22;4985352;28;20189;-68
2022/12/11 03:43:05;;;;;;;56.15;28.27;;;;;;;-2.98;100.00;95949.16;4975131;28;20105;-69
2022/12/11 03:45:32;;;;;;;58.00;27.48;;;;;;;-2.97;100.00;95948.06;4966225;28;20075;-69
2022/12/11 03:48:00;;;;;;;52.17;26.17;;;;;;;-2.94;100.00;95948.25;4966228;28;20101;-70
2022/12/11 03:50:29;;;;;;;49.75;26.13;;;;;;;-3.01;100.00;95949.75;4998010;28;20138;-70
2022/12/11 03:52:55;;;;;;;;;;;;;;;-3.16;100.00;95956.19;4992049;28;20069;-69
2022/12/11 03:55:22;;;;;;;47.45;24.70;;;;;;;-3.24;100.00;95956.88;5000353;28;19918;-69
2022/12/11 03:57:48;;;;;;;52.20;25.50;;;;;;;-3.13;100.00;95947.59;4973377;28;20047;-69
2022/12/11 04:00:17;;;;;;;52.78;26.52;;;;;;;-2.95;100.00;95953.94;4966763;28;20076;-69
2022/12/11 04:02:44;;;;;;;52.20;25.73;;;;;;;-2.96;100.00;95941.63;4982137;28;20041;-68
2022/12/11 04:05:10;;;;;;;55.13;25.98;;;;;;;-2.85;100.00;95944.91;4973268;28;20034;-68
2022/12/11 04:07:35;;;;;;;51.47;26.60;;;;;;;-2.82;100.00;95947.78;4979333;28;20038;-69
2022/12/11 04:10:02;;;;;;;51.67;26.25;;;;;;;-2.83;100.00;95940.81;4979215;28;20042;-68
2022/12/11 04:12:30;;;;;;;48.83;24.30;;;;;;;-2.88;100.00;95943.63;5005138;28;20047;-70
2022/12/11 04:15:02;;;;;;;49.10;24.75;;;;;;;-2.87;100.00;95942.50;4995346;28;20096;-70
2022/12/11 04:26:09;;;;;;;44.47;22.48;;;;;;;-2.70;100.00;95963.38;4992646;28;20052;-70
2022/12/11 04:28:35;;;;;;;39.83;22.00;;;;;;;-2.69;100.00;95960.34;4992385;28;20129;-70
2022/12/11 04:31:01;;;;;;;39.47;21.02;;;;;;;-2.82;100.00;95961.16;5004042;28;20161;-70
2022/12/11 04:33:27;;;;;;;37.30;21.05;;;;;;;-2.87;100.00;95961.25;5015844;28;20039;-69
2022/12/11 04:35:52;;;;;;;39.60;21.45;;;;;;;-2.84;100.00;95962.56;4988981;28;20406;-69
2022/12/11 04:38:18;;;;;;;40.55;21.15;;;;;;;-2.80;100.00;95961.66;4999757;28;20042;-69
2022/12/11 04:40:43;;;;;;;43.08;22.52;;;;;;;-2.86;100.00;95970.09;4994476;28;20026;-70
2022/12/11 04:43:09;;;;;;;40.78;21.60;;;;;;;-2.86;100.00;95967.41;4977731;28;20108;-69
2022/12/11 04:45:34;;;;;;;38.85;21.17;;;;;;;-3.07;100.00;95970.50;4978534;28;20042;-68
2022/12/11 04:47:59;;;;;;;38.63;20.75;;;;;;;-3.13;100.00;95963.66;4980546;28;20116;-70
2022/12/11 04:50:25;;;;;;;36.55;20.08;;;;;;;-3.22;100.00;95960.03;4959279;28;20046;-69
2022/12/11 04:52:54;;;;;;;35.92;20.30;;;;;;;-3.61;100.00;95959.38;4974806;28;20045;-69
2022/12/11 04:55:19;;;;;;;42.78;21.50;;;;;;;-4.11;100.00;95964.47;4975318;28;20072;-69
2022/12/11 04:57:45;;;;;;;39.50;20.70;;;;;;;-4.11;100.00;95959.91;4980104;28;20069;-68
2022/12/11 05:00:11;;;;;;;40.75;22.92;;;;;;;-4.14;100.00;95955.16;4975152;28;20042;-69
2022/12/11 05:02:38;;;;;;;44.88;22.63;;;;;;;-4.20;100.00;95950.16;4976677;28;20042;-68
2022/12/11 05:05:05;;;;;;;40.75;21.73;;;;;;;-4.33;100.00;95952.47;4974541;28;20061;-67
2022/12/11 05:07:31;;;;;;;39.88;21.85;;;;;;;-4.25;100.00;95943.81;4979441;28;20046;-69
2022/12/11 05:09:56;;;;;;;44.55;22.17;;;;;;;-4.06;100.00;95943.78;4981835;28;20097;-69
2022/12/11 05:12:22;;;;;;;39.38;21.48;;;;;;;-4.05;100.00;95942.72;4972895;28;20507;-70
2022/12/11 05:14:51;;;;;;;39.67;22.15;;;;;;;-4.23;100.00;95946.97;4977135;28;20070;-69
2022/12/11 05:17:17;;;;;;;42.95;22.45;;;;;;;-4.39;100.00;95956.31;4988413;28;20031;-70
2022/12/11 05:19:42;;;;;;;41.70;21.67;;;;;;;-4.28;100.00;95952.41;4981091;28;20101;-70
2022/12/11 05:22:08;;;;;;;45.40;22.88;;;;;;;-4.16;100.00;95951.16;4974370;28;20513;-69
2022/12/11 05:24:33;;;;;;;42.67;22.35;;;;;;;-4.57;100.00;95957.06;4981235;28;20038;-69
2022/12/11 05:26:59;;;;;;;45.60;21.58;;;;;;;-4.83;100.00;95947.50;4979526;28;20879;-70
2022/12/11 05:29:24;;;;;;;44.83;21.05;;;;;;;-4.89;100.00;95954.00;4974857;28;20049;-68
2022/12/11 05:31:50;;;;;;;41.92;22.33;;;;;;;-4.94;100.00;95948.72;4978915;28;20117;-70
2022/12/11 05:34:15;;;;;;;47.00;23.73;;;;;;;-5.05;100.00;95949.94;4977459;28;20046;-70
2022/12/11 05:36:41;;;;;;;45.72;22.88;;;;;;;-5.14;100.00;95955.09;4985266;28;20037;-71
2022/12/11 05:39:06;;;;;;;42.60;22.50;;;;;;;-5.29;100.00;95950.72;4985854;28;20042;-70
2022/12/11 05:41:32;;;;;;;44.78;21.95;;;;;;;-5.36;100.00;95955.59;5003027;28;20038;-70
2022/12/11 05:43:58;;;;;;;42.63;22.05;;;;;;;-5.46;100.00;95950.34;4997809;28;20042;-70
2022/12/11 05:46:26;;;;;;;51.17;22.35;;;;;;;-5.48;100.00;95949.84;4997703;28;20559;-70
2022/12/11 05:48:58;;;;;;;44.53;22.27;;;;;;;-5.40;100.00;95946.56;4985856;28;20065;-71
2022/12/11 05:51:24;;;;;;;43.55;21.38;;;;;;;-5.39;100.00;95954.28;4962333;28;20493;-71
2022/12/11 05:53:50;;;;;;;43.53;20.92;;;;;;;-5.25;100.00;95951.75;4984143;28;20042;-69
2022/12/11 05:56:19;;;;;;;45.95;20.98;;;;;;;-5.63;100.00;95962.25;4984478;28;20653;-71
2022/12/11 05:58:46;;;;;;;47.47;21.20;;;;;;;-5.72;100.00;95953.28;4991968;28;20156;-69
2022/12/11 06:01:16;;;;;;;45.20;21.85;;;;;;;-5.74;100.00;95952.75;4992054;28;20049;-70
2022/12/11 06:03:42;;;;;;;44.72;22.55;;;;;;;-5.74;100.00;95960.75;4989939;28;20065;-70
2022/12/11 06:06:08;;;;;;;44.65;21.25;;;;;;;-5.65;100.00;95961.75;4980675;28;20061;-70
2022/12/11 06:08:34;;;;;;;40.85;20.35;;;;;;;-5.75;100.00;95956.50;4984996;28;20046;-70
2022/12/11 06:11:00;;;;;;;44.50;22.00;;;;;;;-5.64;100.00;95963.31;4986593;28;20042;-69
2022/12/11 06:13:25;;;;;;;38.95;20.17;;;;;;;-5.64;100.00;95959.88;4980933;28;20566;-70
2022/12/11 06:15:51;;;;;;;38.85;20.13;;;;;;;-5.50;100.00;95960.78;4984986;28;20042;-70
2022/12/11 06:18:17;;;;;;;42.05;20.00;;;;;;;-5.59;100.00;95965.16;4984844;28;20046;-70
2022/12/11 06:20:42;;;;;;;40.35;20.13;;;;;;;-5.56;100.00;95964.59;4993428;28;20106;-71
2022/12/11 06:23:07;;;;;;;44.15;21.42;;;;;;;-5.78;100.00;95960.53;4986748;28;20046;-68
2022/12/11 06:25:33;;;;;;;39.50;19.77;;;;;;;-5.86;100.00;95963.00;4984437;28;20467;-70
2022/12/11 06:27:59;;;;;;;41.03;19.85;;;;;;;-5.85;100.00;95967.25;4966766;28;20511;-70
2022/12/11 06:30:24;;;;;;;39.67;19.60;;;;;;;-5.93;100.00;95962.53;4979353;28;20050;-69
2022/12/11 06:32:50;;;;;;;42.80;20.83;;;;;;;-5.97;100.00;95959.63;4984577;28;20081;-71
2022/12/11 06:35:15;;;;;;;41.95;20.13;;;;;;;-5.90;100.00;95965.41;4994874;28;20104;-71
2022/12/11 06:37:41;;;;;;;40.40;19.63;;;;;;;-5.94;100.00;95959.06;4981732;28;20364;-69
2022/12/11 06:40:08;;;;;;;39.90;20.48;;;;;;;-5.91;100.00;95960.38;4976444;28;20040;-68
2022/12/11 06:42:34;;;;;;;41.10;19.83;;;;;;;-6.20;100.00;95958.47;4965488;28;20073;-70
2022/12/11 06:45:00;;;;;;;39.80;19.15;;;;;;;-6.20;100.00;95959.25;4965210;28;20078;-70
2022/12/11 06:47:26;;;;;;;42.47;20.27;;;;;;;-6.08;100.00;95952.81;4960343;28;20051;-70
2022/12/11 06:49:52;;;;;;;40.92;19.58;;;;;;;-6.33;100.00;95962.56;4964694;28;20077;-70
2022/12/11 06:52:19;;;;;;;39.28;19.88;;;;;;;-6.54;100.00;95965.34;4979962;28;20126;-70
2022/12/11 06:54:44;;;;;;;39.25;19.52;;;;;;;-6.49;100.00;95961.06;4983790;28;20054;-70
2022/12/11 06:57:09;;;;;;;50.88;24.15;;;;;;;-6.71;100.00;95975.56;5008694;28;20049;-71
2022/12/11 06:59:35;;;;;;;53.42;20.80;;;;;;;-6.86;100.00;95970.28;4984073;28;20073;-69
2022/12/11 07:02:00;;;;;;;52.20;21.25;;;;;;;-6.76;100.00;95965.72;4984614;28;20503;-71
2022/12/11 07:04:26;;;;;;;41.55;20.00;;;;;;;-6.71;100.00;95974.78;4978810;28;20050;-70
2022/12/11 07:06:52;;;;;;;42.58;22.13;;;;;;;-6.61;100.00;95980.03;4981812;28;20077;-69
2022/12/11 07:09:18;;;;;;;39.90;20.05;;;;;;;-6.61;100.00;95969.38;4978163;28;20041;-70
2022/12/11 07:11:43;;;;;;;51.30;23.15;;;;;;;-6.57;100.00;95967.78;4984247;28;20141;-70
2022/12/11 07:14:08;;;;;;;56.10;25.40;;;;;;;-6.43;100.00;95965.28;4977507;28;20157;-71
2022/12/11 07:16:34;;;;;;;77.72;29.30;;;;;;;-6.36;100.00;95963.09;4980869;28;20046;-71
2022/12/11 07:18:59;;;;;;;56.00;24.55;;;;;;;-6.38;100.00;95966.03;4984188;28;20380;-69
2022/12/11 07:21:25;;;;;;;43.00;20.40;;;;;;;-6.40;100.00;95976.19;4980534;28;20137;-71
2022/12/11 07:23:50;;;;;;;48.45;21.05;;;;;;;-6.31;100.00;95973.72;4999358;28;20503;-69
2022/12/11 07:26:19;;;;;;;41.03;20.48;;;;;;;-6.27;100.00;95960.66;4980111;28;20050;-69
2022/12/11 07:28:44;;;;;;;46.63;22.25;;;;;;;-6.48;100.00;95978.63;4984555;28;20080;-70
2022/12/11 07:31:12;;;;;;;40.33;20.55;;;;;;;-6.62;100.00;95973.91;4999664;28;20042;-69
2022/12/11 07:33:38;;;;;;;44.25;21.30;;;;;;;-6.61;100.00;95972.03;4998610;28;20034;-70
2022/12/11 07:36:06;;;;;;;45.20;21.20;;;;;;;-6.34;100.00;95976.94;4982051;28;20042;-67
2022/12/11 07:38:32;;;;;;;38.35;20.05;;;;;;;-6.15;100.00;95972.56;4984062;28;20062;-70
2022/12/11 07:41:05;;;;;;;45.63;20.55;;;;;;;-5.49;100.00;95970.41;4983686;28;20553;-71
2022/12/11 07:43:31;;;;;;;47.75;21.35;;;;;;;-4.92;100.00;95972.47;5003140;28;20486;-71
2022/12/11 07:46:03;;;;;;;41.20;21.48;;;;;;;-4.20;100.00;95971.56;5002665;28;20125;-71
2022/12/11 07:48:29;;;;;;;39.58;21.58;;;;;;;-3.65;100.00;95977.91;4998424;28;20061;-70
2022/12/11 07:50:54;;;;;;;36.00;19.33;;;;;;;-3.01;100.00;95981.91;5030692;28;20045;-71
2022/12/11 07:53:20;;;;;;;36.97;18.67;;;;;;;-2.48;100.00;95991.31;5006918;28;20076;-71
2022/12/11 07:55:45;;;;;;;30.45;17.02;;;;;;;-2.02;99.49;95985.75;4988113;28;20136;-69
2022/12/11 07:58:11;;;;;;;34.58;18.10;;;;;;;-1.59;97.72;95987.97;5020064;28;20092;-70
2022/12/11 08:00:36;;;;;;;37.97;18.48;;;;;;;-1.13;93.40;95977.19;4997684;28;20069;-69
2022/12/11 08:03:01;;;;;;;29.63;15.95;;;;;;;-1.23;88.57;95989.78;4994581;28;20038;-70
2022/12/11 08:05:27;;;;;;;30.40;17.52;;;;;;;-0.81;87.68;95984.13;4989019;28;20069;-70
2022/12/11 08:07:52;;;;;;;31.55;16.98;;;;;;;-0.64;87.35;95980.72;5016991;28;20434;-69
2022/12/11 08:10:18;;;;;;;25.05;14.57;;;;;;;-0.39;85.95;95984.59;4995652;28;20108;-70
2022/12/11 08:12:43;;;;;;;25.73;14.52;;;;;;;0.09;83.86;95983.72;4982027;28;20101;-68
2022/12/11 08:15:09;;;;;;;27.02;14.45;;;;;;;-0.39;81.96;95988.06;4995494;28;20062;-69
2022/12/11 08:17:35;;;;;;;25.42;13.95;;;;;;;0.41;82.05;95988.91;5001134;28;20459;-70
2022/12/11 08:20:00;;;;;;;24.25;13.82;;;;;;;0.99;78.85;95992.13;5002701;28;20096;-68
2022/12/11 08:22:25;;;;;;;23.95;13.85;;;;;;;1.29;76.52;95982.19;4978162;28;20052;-68
2022/12/11 08:24:51;;;;;;;24.05;13.80;;;;;;;1.50;76.24;95993.84;5002206;28;20049;-69
2022/12/11 08:27:16;;;;;;;22.15;12.85;;;;;;;1.82;72.57;95975.41;5012324;28;20133;-70
2022/12/11 08:29:42;;;;;;;21.92;13.70;;;;;;;2.09;71.27;95978.75;5000177;28;20045;-70
2022/12/11 08:32:07;;;;;;;22.55;13.45;;;;;;;2.08;70.53;95982.56;4988540;28;20045;-69
2022/12/11 08:34:33;;;;;;;23.60;14.20;;;;;;;2.24;68.99;95982.75;5001382;28;20046;-69
2022/12/11 08:36:58;;;;;;;24.80;14.48;;;;;;;2.52;69.32;95982.19;5001357;28;20037;-70
2022/12/11 08:39:24;;;;;;;21.05;13.50;;;;;;;2.41;70.11;95974.50;4998432;28;20528;-70
2022/12/11 08:41:49;;;;;;;22.55;13.90;;;;;;;2.97;65.96;95979.53;5000191;28;20033;-71
2022/12/11 08:44:15;;;;;;;20.77;13.88;;;;;;;2.47;67.09;95988.59;5002232;28;20052;-69
2022/12/11 08:46:40;;;;;;;23.55;14.82;;;;;;;0.35;75.73;95980.22;4982076;28;20050;-71
2022/12/11 08:49:06;;;;;;;26.58;15.82;;;;;;;-0.99;85.52;95986.75;4982675;28;20057;-70
2022/12/11 08:51:31;;;;;;;26.23;15.55;;;;;;;-0.79;94.56;95976.56;4983747;28;20034;-70
2022/12/11 08:53:59;;;;;;;30.25;18.13;;;;;;;0.75;84.82;95991.56;4990508;28;20566;-70
2022/12/11 08:56:25;;;;;;;26.13;15.48;;;;;;;1.61;76.60;95988.88;4978865;28;20042;-70
2022/12/11 08:58:52;;;;;;;26.00;15.75;;;;;;;1.61;73.09;95993.50;4983541;28;20583;-70
2022/12/11 09:01:23;;;;;;;24.40;14.43;;;;;;;1.50;73.92;95996.53;4976739;28;20131;-70
2022/12/11 09:03:50;;;;;;;21.55;14.15;;;;;;;1.36;75.00;95993.28;4994513;28;20111;-70
2022/12/11 09:06:18;;;;;;;24.23;14.68;;;;;;;1.03;75.52;95993.88;4976521;28;20044;-69
2022/12/11 09:08:45;;;;;;;22.58;14.85;;;;;;;0.80;75.50;96003.31;4982054;28;20046;-69
2022/12/11 09:11:14;;;;;;;24.55;14.25;;;;;;;0.55;77.06;95993.00;4977463;28;20537;-69
2022/12/11 09:13:39;;;;;;;24.17;14.45;;;;;;;0.31;79.14;95993.53;4981651;28;20077;-70
2022/12/11 09:16:08;;;;;;;21.77;13.52;;;;;;;0.64;79.07;95992.22;4976646;28;20380;-68
2022/12/11 09:18:35;;;;;;;29.85;17.08;;;;;;;1.30;77.79;95981.09;4981258;28;20062;-69
2022/12/11 09:21:02;;;;;;;23.45;14.95;;;;;;;1.98;72.90;95977.53;4982693;28;20127;-70
2022/12/11 09:23:27;;;;;;;21.85;13.20;;;;;;;2.64;71.58;95971.44;4997460;28;20046;-71
2022/12/11 09:25:53;;;;;;;21.23;13.02;;;;;;;1.92;69.09;95980.41;5001576;28;20053;-70
2022/12/11 09:28:18;;;;;;;22.20;14.55;;;;;;;1.98;73.81;95980.22;5011843;28;20050;-69
2022/12/11 09:30:44;;;;;;;23.60;14.48;;;;;;;1.99;71.90;95979.13;4983580;28;20136;-70
2022/12/11 09:33:09;;;;;;;20.67;13.18;;;;;;;2.22;72.54;95979.59;4999221;28;20042;-70
2022/12/11 09:35:35;;;;;;;25.92;17.30;;;;;;;1.98;79.55;95964.03;5004049;28;20041;-69
2022/12/11 09:38:02;;;;;;;22.83;15.70;;;;;;;2.81;72.54;95968.56;5021353;28;20041;-68
2022/12/11 09:40:28;;;;;;;20.67;13.07;;;;;;;3.83;70.24;95962.53;4997825;28;20042;-68
2022/12/11 09:43:18;;;;;;;20.65;12.07;;;;;;;4.70;61.10;95965.78;5003000;28;20446;-69
2022/12/11 09:45:44;;;;;;;20.95;13.25;;;;;;;3.72;66.45;95956.00;5003712;28;20092;-70
2022/12/11 09:48:12;;;;;;;22.10;14.07;;;;;;;4.13;65.60;95962.25;4999421;28;20049;-69
2022/12/11 09:50:38;;;;;;;19.98;12.98;;;;;;;4.75;59.73;95957.38;5003615;28;20046;-69
2022/12/11 09:53:18;;;;;;;19.23;12.82;;;;;;;5.20;59.62;95967.09;5005694;28;20462;-67
2022/12/11 09:56:11;;;;;;;18.40;12.88;;;;;;;5.57;58.68;95960.63;5001683;28;20046;-69
2022/12/11 09:59:02;;;;;;;22.55;15.15;;;;;;;5.64;58.83;95947.97;5012432;28;20041;-69
2022/12/11 10:01:43;;;;;;;19.65;12.43;;;;;;;5.83;57.58;95952.66;5006251;28;20741;-70
2022/12/11 10:04:39;;;;;;;22.85;14.55;;;;;;;5.63;57.71;95940.97;5006838;28;20054;-70
2022/12/11 10:07:07;;;;;;;23.17;14.02;;;;;;;4.95;60.62;95933.88;5000249;28;20069;-66
2022/12/11 10:09:58;;;;;;;21.85;14.65;;;;;;;4.90;60.02;95945.00;5003750;28;20041;-70
2022/12/11 10:12:37;;;;;;;19.23;12.85;;;;;;;4.32;61.68;95940.75;5015161;28;20046;-70
2022/12/11 10:15:20;;;;;;;21.67;13.90;;;;;;;3.81;63.98;95935.00;5005112;28;20052;-71
2022/12/11 10:17:46;;;;;;;22.35;14.13;;;;;;;3.54;64.80;95934.56;5004078;28;20446;-70
2022/12/11 10:20:28;;;;;;;20.08;12.93;;;;;;;3.43;66.25;95925.34;4997429;28;20061;-69
2022/12/11 10:22:57;;;;;;;23.55;14.23;;;;;;;3.12;66.37;95921.28;4999638;28;20038;-69
2022/12/11 10:25:56;;;;;;;;;;;;;;;2.79;69.20;95918.63;4995536;28;20080;-68
2022/12/11 10:28:21;;;;;;;21.30;12.70;;;;;;;2.49;70.96;95910.69;4976254;28;19917;-69
2022/12/11 10:30:59;;;;;;;19.73;12.80;;;;;;;2.46;67.77;95914.03;5004222;28;20049;-70
2022/12/11 10:33:40;;;;;;;20.13;12.70;;;;;;;3.31;67.03;95909.88;5013401;28;20045;-69
2022/12/11 10:36:09;;;;;;;24.23;13.10;;;;;;;3.87;64.52;95908.47;4999540;28;20120;-67
2022/12/11 10:38:41;;;;;;;23.38;13.25;;;;;;;3.96;63.42;95903.69;5003690;28;20045;-69
2022/12/11 10:41:17;;;;;;;19.23;12.75;;;;;;;3.52;63.81;95896.22;5000001;28;20038;-68
2022/12/11 10:43:48;;;;;;;21.15;12.75;;;;;;;4.31;67.57;95895.00;5003744;28;20406;-70
2022/12/11 10:46:22;;;;;;;18.40;12.65;;;;;;;4.33;63.42;95895.44;4998116;28;20042;-69
2022/12/11 10:48:56;;;;;;;16.27;11.75;;;;;;;4.53;60.75;95899.06;5018516;28;20038;-69
2022/12/11 10:51:24;;;;;;;17.25;10.75;;;;;;;4.85;59.39;95904.56;5002598;28;20396;-69
2022/12/11 10:53:57;;;;;;;17.08;11.68;;;;;;;4.99;57.83;95902.22;5002472;28;20042;-69
2022/12/11 10:56:31;;;;;;;16.35;10.75;;;;;;;4.87;57.57;95892.22;4996210;28;20505;-69
2022/12/11 10:58:59;;;;;;;16.83;11.23;;;;;;;5.16;57.93;95890.19;5003843;28;20037;-68
2022/12/11 11:01:26;;;;;;;16.65;11.23;;;;;;;4.96;56.66;95895.53;4998371;28;20329;-70
2022/12/11 11:04:25;;;;;;;16.67;11.15;;;;;;;4.95;56.89;95883.13;5004101;28;20053;-71
2022/12/11 11:07:11;;;;;;;12.60;7.90;;;;;;;4.89;55.51;95887.22;5018278;28;20038;-70
2022/12/11 11:09:38;;;;;;;12.95;8.40;;;;;;;5.11;54.81;95877.69;5014373;28;20073;-69
2022/12/11 11:12:16;;;;;;;11.15;7.60;;;;;;;5.26;53.08;95881.53;4994728;28;20042;-71
2022/12/11 11:14:41;;;;;;;11.68;7.68;;;;;;;5.35;51.17;95874.00;4990743;28;20049;-68
2022/12/11 11:17:14;;;;;;;13.07;9.18;;;;;;;4.91;54.24;95860.53;4979037;28;20046;-68
2022/12/11 11:19:40;;;;;;;13.07;8.30;;;;;;;5.00;53.62;95865.78;4989165;28;20038;-70
2022/12/11 11:22:11;;;;;;;15.88;9.40;;;;;;;3.91;54.61;95866.81;4991517;28;20395;-70
2022/12/11 11:24:55;;;;;;;14.18;9.50;;;;;;;3.99;55.96;95862.38;4986772;28;20092;-70
2022/12/11 11:27:29;;;;;;;13.95;9.38;;;;;;;4.96;54.85;95859.47;4995093;28;20454;-69
2022/12/11 11:29:58;;;;;;;17.75;12.13;;;;;;;6.13;51.96;95848.88;4985711;28;20045;-70